Time;durP1;ratioP1;P1;durP2;ratioP2;P2;SDS_P1;SDS_P2;PMS_P1;PMS_P2;Temp;Humidity;BMP_temperature;BMP_pressure;BME280_temperature;BME280_humidity;BME280_pressure;Samples;Min_cycle;Max_cycle;Signal;HPM_P1;HPM_P2
2021/09/25 00:00:21;;;;;;;;;;;23.30;57.90;;;;;;5077446;28;19962;-60
2021/09/25 00:02:48;;;;;;;;;;;23.30;57.90;;;;;;5063726;28;20343;-60
2021/09/25 00:05:15;;;;;;;;;;;23.30;57.90;;;;;;5071229;28;19931;-59
2021/09/25 00:07:42;;;;;;;;;;;23.30;57.90;;;;;;5074954;28;20386;-59
2021/09/25 00:10:10;;;;;;;;;;;23.30;58.00;;;;;;5077416;28;19932;-59
2021/09/25 00:12:37;;;;;;;;;;;23.30;58.00;;;;;;5074811;28;19971;-59
2021/09/25 00:15:05;;;;;;;;;;;23.30;58.10;;;;;;5075585;28;20002;-60
2021/09/25 00:17:32;;;;;;;;;;;23.20;58.10;;;;;;5075420;28;19944;-60
2021/09/25 00:19:59;;;;;;;;;;;23.20;58.10;;;;;;5075076;28;20291;-60
2021/09/25 00:22:26;;;;;;;;;;;23.20;58.10;;;;;;5074407;28;19924;-59
2021/09/25 00:24:53;;;;;;;;;;;23.30;58.30;;;;;;5074490;28;19964;-60
2021/09/25 00:27:19;;;;;;;;;;;23.20;58.20;;;;;;5076447;28;19924;-59
2021/09/25 00:29:46;;;;;;;;;;;23.20;58.20;;;;;;5061796;28;19932;-60
2021/09/25 00:32:13;;;;;;;;;;;23.20;58.20;;;;;;5069530;28;20265;-60
2021/09/25 00:34:41;;;;;;;;;;;23.20;58.20;;;;;;5084309;28;20292;-59
2021/09/25 00:37:09;;;;;;;;;;;23.20;58.20;;;;;;5083615;28;19932;-60
2021/09/25 00:39:36;;;;;;;;;;;23.20;58.30;;;;;;5075759;28;19930;-59
2021/09/25 00:42:03;;;;;;;;;;;23.20;58.20;;;;;;5076909;28;19974;-60
2021/09/25 00:44:30;;;;;;;;;;;23.20;58.80;;;;;;5074376;28;20007;-59
2021/09/25 00:46:58;;;;;;;;;;;23.20;58.20;;;;;;5075514;28;19964;-60
2021/09/25 00:49:25;;;;;;;;;;;23.20;58.20;;;;;;5091841;28;20392;-60
2021/09/25 00:51:52;;;;;;;;;;;23.20;58.20;;;;;;5058147;28;20043;-60
2021/09/25 00:54:19;;;;;;;;;;;23.20;58.20;;;;;;5071682;28;19924;-60
2021/09/25 00:56:48;;;;;;;;;;;23.20;58.20;;;;;;5072278;28;19924;-60
2021/09/25 00:59:15;;;;;;;;;;;23.20;58.30;;;;;;5073758;28;19955;-60
2021/09/25 01:01:43;;;;;;;;;;;23.20;58.30;;;;;;5065055;28;19939;-60
2021/09/25 01:04:11;;;;;;;;;;;23.20;58.20;;;;;;5065372;28;19968;-60
2021/09/25 01:06:38;;;;;;;;;;;23.20;58.30;;;;;;5074024;28;19958;-60
2021/09/25 01:09:05;;;;;;;;;;;23.20;58.30;;;;;;5076333;28;20064;-60
2021/09/25 01:11:32;;;;;;;;;;;23.20;58.20;;;;;;5073483;28;19924;-59
2021/09/25 01:14:00;;;;;;;;;;;23.20;58.20;;;;;;5073640;28;19924;-59
2021/09/25 01:16:27;;;;;;;;;;;23.20;58.20;;;;;;5073793;28;20276;-59
2021/09/25 01:18:54;;;;;;;;;;;23.20;58.20;;;;;;5089670;28;19931;-60
2021/09/25 01:21:21;;;;;;;;;;;23.20;58.20;;;;;;5073934;28;19924;-59
2021/09/25 01:23:48;;;;;;;;;;;23.20;58.20;;;;;;5086249;28;20374;-60
2021/09/25 01:26:16;;;;;;;;;;;23.20;58.30;;;;;;5067594;28;20464;-61
2021/09/25 01:28:44;;;;;;;;;;;23.20;58.30;;;;;;5074064;28;19928;-60
2021/09/25 01:31:12;;;;;;;;;;;23.20;58.30;;;;;;5083248;28;19964;-60
2021/09/25 01:33:42;;;;;;;;;;;23.20;58.30;;;;;;5069616;28;20051;-60
2021/09/25 01:36:10;;;;;;;;;;;23.20;58.30;;;;;;5060886;28;20273;-60
2021/09/25 01:38:37;;;;;;;;;;;23.20;58.30;;;;;;5073366;28;20015;-60
2021/09/25 01:41:04;;;;;;;;;;;23.20;58.30;;;;;;5056336;28;19925;-60
2021/09/25 01:43:32;;;;;;;;;;;23.20;58.30;;;;;;5073160;28;20007;-60
2021/09/25 01:45:59;;;;;;;;;;;23.20;58.30;;;;;;5072144;28;19928;-59
2021/09/25 01:48:26;;;;;;;;;;;23.20;58.30;;;;;;5074307;28;19925;-60
2021/09/25 01:50:53;;;;;;;;;;;23.20;58.30;;;;;;5072624;28;19928;-60
2021/09/25 01:53:21;;;;;;;;;;;23.20;58.30;;;;;;5062828;28;20027;-60
2021/09/25 01:55:51;;;;;;;;;;;23.20;58.30;;;;;;5066356;28;20575;-60
2021/09/25 01:58:18;;;;;;;;;;;23.20;58.30;;;;;;5066329;28;19972;-60
2021/09/25 02:00:45;;;;;;;;;;;23.20;58.20;;;;;;5057065;28;20006;-60
2021/09/25 02:03:12;;;;;;;;;;;23.20;58.20;;;;;;5057354;28;20369;-60
2021/09/25 02:05:40;;;;;;;;;;;23.20;58.30;;;;;;5056961;28;19982;-60
2021/09/25 02:08:07;;;;;;;;;;;23.20;58.20;;;;;;5056971;28;20283;-60
2021/09/25 02:10:34;;;;;;;;;;;23.20;58.20;;;;;;5057687;28;19999;-60
2021/09/25 02:13:01;;;;;;;;;;;23.20;58.20;;;;;;5071655;28;19924;-60
2021/09/25 02:15:28;;;;;;;;;;;23.20;58.30;;;;;;5055871;28;20431;-60
2021/09/25 02:17:55;;;;;;;;;;;23.20;58.20;;;;;;5071775;28;19925;-59
2021/09/25 02:20:21;;;;;;;;;;;23.20;58.30;;;;;;5071378;28;19924;-60
2021/09/25 02:22:48;;;;;;;;;;;23.20;58.20;;;;;;5072373;28;19973;-60
2021/09/25 02:25:15;;;;;;;;;;;23.20;58.30;;;;;;5065016;28;19925;-60
2021/09/25 02:27:42;;;;;;;;;;;23.20;58.30;;;;;;5061679;28;19928;-61
2021/09/25 02:30:14;;;;;;;;;;;23.20;58.20;;;;;;5070609;28;19925;-59
2021/09/25 02:32:41;;;;;;;;;;;23.20;58.20;;;;;;5057029;28;20359;-60
2021/09/25 02:35:08;;;;;;;;;;;23.20;58.20;;;;;;5056424;28;19990;-60
2021/09/25 02:37:35;;;;;;;;;;;23.20;58.20;;;;;;5072082;28;19924;-60
2021/09/25 02:40:03;;;;;;;;;;;23.20;58.20;;;;;;5054809;28;19964;-60
2021/09/25 02:42:30;;;;;;;;;;;23.20;58.20;;;;;;5056341;28;19925;-60
2021/09/25 02:44:57;;;;;;;;;;;23.20;58.20;;;;;;5070515;28;19929;-60
2021/09/25 02:47:24;;;;;;;;;;;23.20;58.30;;;;;;5071698;28;19928;-60
2021/09/25 02:49:51;;;;;;;;;;;23.20;58.30;;;;;;5062530;28;19975;-60
2021/09/25 02:52:18;;;;;;;;;;;23.10;58.20;;;;;;5062809;28;20007;-60
2021/09/25 02:54:46;;;;;;;;;;;23.20;58.30;;;;;;5071009;28;20284;-59
2021/09/25 02:57:13;;;;;;;;;;;23.10;58.20;;;;;;5070157;28;19928;-60
2021/09/25 02:59:42;;;;;;;;;;;23.10;58.20;;;;;;5071310;28;20199;-59
2021/09/25 03:02:09;;;;;;;;;;;23.10;58.10;;;;;;5071999;28;20015;-59
2021/09/25 03:04:36;;;;;;;;;;;23.10;58.10;;;;;;5073704;28;19931;-60
2021/09/25 03:07:03;;;;;;;;;;;23.20;58.30;;;;;;5071792;28;20031;-59
2021/09/25 03:09:30;;;;;;;;;;;23.20;58.20;;;;;;5087006;28;19946;-59
2021/09/25 03:11:57;;;;;;;;;;;23.20;58.20;;;;;;5071645;28;20388;-60
2021/09/25 03:14:24;;;;;;;;;;;23.20;58.20;;;;;;5061613;28;20347;-60
2021/09/25 03:16:51;;;;;;;;;;;23.10;58.10;;;;;;5069571;28;19971;-60
2021/09/25 03:19:18;;;;;;;;;;;23.10;58.10;;;;;;5080758;28;20010;-59
2021/09/25 03:21:45;;;;;;;;;;;23.20;58.20;;;;;;5087173;28;19967;-60
2021/09/25 03:24:12;;;;;;;;;;;23.10;58.10;;;;;;5086284;28;19931;-60
2021/09/25 03:26:39;;;;;;;;;;;23.10;58.10;;;;;;5070226;28;19978;-60
2021/09/25 03:29:08;;;;;;;;;;;23.10;58.10;;;;;;5072301;28;20397;-60
2021/09/25 03:31:35;;;;;;;;;;;23.10;58.10;;;;;;5073055;28;19974;-60
2021/09/25 03:34:02;;;;;;;;;;;23.10;58.20;;;;;;5070820;28;19970;-59
2021/09/25 03:36:29;;;;;;;;;;;23.10;58.10;;;;;;5071938;28;20012;-60
2021/09/25 03:38:55;;;;;;;;;;;23.10;58.10;;;;;;5071528;28;20007;-60
2021/09/25 03:41:22;;;;;;;;;;;23.10;58.10;;;;;;5070141;28;19931;-59
2021/09/25 03:43:52;;;;;;;;;;;23.10;58.10;;;;;;5070066;28;20015;-59
2021/09/25 03:46:19;;;;;;;;;;;23.10;58.10;;;;;;5071896;28;20316;-59
2021/09/25 03:48:46;;;;;;;;;;;23.10;58.10;;;;;;5071257;28;19972;-60
2021/09/25 03:51:13;;;;;;;;;;;23.10;58.10;;;;;;5072610;28;19931;-60
2021/09/25 03:53:40;;;;;;;;;;;23.10;58.20;;;;;;5071107;28;20007;-59
2021/09/25 03:56:09;;;;;;;;;;;23.10;58.20;;;;;;5072615;28;19924;-60
2021/09/25 03:58:37;;;;;;;;;;;23.10;58.10;;;;;;5054139;28;19931;-60
2021/09/25 04:01:04;;;;;;;;;;;23.10;58.20;;;;;;5053694;28;19976;-60
2021/09/25 04:03:31;;;;;;;;;;;23.10;58.10;;;;;;5071253;28;19931;-60
2021/09/25 04:06:01;;;;;;;;;;;23.10;58.10;;;;;;5074445;28;19925;-60
2021/09/25 04:08:32;;;;;;;;;;;23.10;58.10;;;;;;5075116;28;19931;-60
2021/09/25 04:10:59;;;;;;;;;;;23.10;58.10;;;;;;5074837;28;20015;-60
2021/09/25 04:13:26;;;;;;;;;;;23.10;58.10;;;;;;5077045;28;19931;-61
2021/09/25 04:15:53;;;;;;;;;;;23.10;58.10;;;;;;5067813;28;19925;-60
2021/09/25 04:18:20;;;;;;;;;;;23.10;58.10;;;;;;5064700;28;20036;-60
2021/09/25 04:20:47;;;;;;;;;;;23.10;58.10;;;;;;5072030;28;20396;-59
2021/09/25 04:23:15;;;;;;;;;;;23.10;58.10;;;;;;5061093;28;19924;-60
2021/09/25 04:25:42;;;;;;;;;;;23.10;58.10;;;;;;5074740;28;19934;-60
2021/09/25 04:28:09;;;;;;;;;;;23.10;58.10;;;;;;5057700;28;20012;-60
2021/09/25 04:30:37;;;;;;;;;;;23.10;58.10;;;;;;5057997;28;19972;-60
2021/09/25 04:33:06;;;;;;;;;;;23.10;58.10;;;;;;5073729;28;19925;-60
2021/09/25 04:35:33;;;;;;;;;;;23.10;58.10;;;;;;5074515;28;20027;-60
2021/09/25 04:38:00;;;;;;;;;;;23.10;58.10;;;;;;5064946;28;20004;-60
2021/09/25 04:40:29;;;;;;;;;;;23.10;58.10;;;;;;5078274;28;19924;-60
2021/09/25 04:42:58;;;;;;;;;;;23.10;58.10;;;;;;5085197;28;19990;-60
2021/09/25 04:45:25;;;;;;;;;;;23.10;58.10;;;;;;5073873;28;20106;-59
2021/09/25 04:47:52;;;;;;;;;;;23.10;58.10;;;;;;5071947;28;19932;-59
2021/09/25 04:50:19;;;;;;;;;;;23.10;58.10;;;;;;5060166;28;19931;-60
2021/09/25 04:52:47;;;;;;;;;;;23.10;58.10;;;;;;5058136;28;20027;-59
2021/09/25 04:55:14;;;;;;;;;;;23.10;58.10;;;;;;5056070;28;20012;-60
2021/09/25 04:57:41;;;;;;;;;;;23.10;58.10;;;;;;5056979;28;19928;-60
2021/09/25 05:00:08;;;;;;;;;;;23.10;58.10;;;;;;5073636;28;20199;-60
2021/09/25 05:02:35;;;;;;;;;;;23.10;58.10;;;;;;5075280;28;20283;-59
2021/09/25 05:05:03;;;;;;;;;;;23.10;58.10;;;;;;5062712;28;20368;-61
2021/09/25 05:07:30;;;;;;;;;;;23.10;58.10;;;;;;5067655;28;20019;-59
2021/09/25 05:09:57;;;;;;;;;;;23.10;58.10;;;;;;5073486;28;19946;-59
2021/09/25 05:12:24;;;;;;;;;;;23.10;58.10;;;;;;5075085;28;19932;-59
2021/09/25 05:14:51;;;;;;;;;;;23.10;58.10;;;;;;5071996;28;19974;-60
2021/09/25 05:17:18;;;;;;;;;;;23.10;58.10;;;;;;5058843;28;20300;-60
2021/09/25 05:19:47;;;;;;;;;;;23.10;58.00;;;;;;5073971;28;19963;-60
2021/09/25 05:22:14;;;;;;;;;;;23.10;58.00;;;;;;5090981;28;20351;-60
2021/09/25 05:24:41;;;;;;;;;;;23.10;58.00;;;;;;5072608;28;20011;-60
2021/09/25 05:27:08;;;;;;;;;;;23.10;57.90;;;;;;5059247;28;19931;-60
2021/09/25 05:29:35;;;;;;;;;;;23.10;58.00;;;;;;5073646;28;19925;-59
2021/09/25 05:32:02;;;;;;;;;;;23.10;58.00;;;;;;5073715;28;19972;-60
2021/09/25 05:34:29;;;;;;;;;;;23.10;57.90;;;;;;5072089;28;19951;-60
2021/09/25 05:36:57;;;;;;;;;;;23.10;57.90;;;;;;5066466;28;19931;-60
2021/09/25 05:39:24;;;;;;;;;;;23.10;57.90;;;;;;5067690;28;19924;-60
2021/09/25 05:41:51;;;;;;;;;;;23.20;57.90;;;;;;5085416;28;19925;-60
2021/09/25 05:44:18;;;;;;;;;;;23.20;58.00;;;;;;5073199;28;20003;-60
2021/09/25 05:46:45;;;;;;;;;;;23.20;57.90;;;;;;5056737;28;19969;-60
2021/09/25 05:49:12;;;;;;;;;;;23.20;58.00;;;;;;5072121;28;19931;-60
2021/09/25 05:51:39;;;;;;;;;;;23.20;57.90;;;;;;5056023;28;20015;-60
2021/09/25 05:54:06;;;;;;;;;;;23.20;57.90;;;;;;5072397;28;20338;-60
2021/09/25 05:56:34;;;;;;;;;;;23.20;57.90;;;;;;5073878;28;20003;-60
2021/09/25 05:59:01;;;;;;;;;;;23.20;57.90;;;;;;5074894;28;19924;-60
2021/09/25 06:01:28;;;;;;;;;;;23.20;57.90;;;;;;5072512;28;19967;-60
2021/09/25 06:03:55;;;;;;;;;;;23.20;57.90;;;;;;5079789;28;20300;-60
2021/09/25 06:06:22;;;;;;;;;;;23.20;57.80;;;;;;5082916;28;19975;-60
2021/09/25 06:08:49;;;;;;;;;;;23.20;57.80;;;;;;5071110;28;19933;-59
2021/09/25 06:11:16;;;;;;;;;;;23.20;57.80;;;;;;5056968;28;20015;-59
2021/09/25 06:13:43;;;;;;;;;;;23.20;57.70;;;;;;5057226;28;19978;-59
2021/09/25 06:16:10;;;;;;;;;;;23.20;57.70;;;;;;5053686;28;19972;-60
2021/09/25 06:18:37;;;;;;;;;;;23.20;57.70;;;;;;5071712;28;19925;-60
2021/09/25 06:21:04;;;;;;;;;;;23.20;57.70;;;;;;5072440;28;19929;-59
2021/09/25 06:23:31;;;;;;;;;;;23.20;57.70;;;;;;5059661;28;19925;-59
2021/09/25 06:25:58;;;;;;;;;;;23.20;57.70;;;;;;5067399;28;20010;-59
2021/09/25 06:28:25;;;;;;;;;;;23.20;57.60;;;;;;5080538;28;19924;-59
2021/09/25 06:30:52;;;;;;;;;;;23.20;57.60;;;;;;5089249;28;20342;-58
2021/09/25 06:33:19;;;;;;;;;;;23.30;57.70;;;;;;5082229;28;19972;-58
2021/09/25 06:35:48;;;;;;;;;;;23.30;57.60;;;;;;5073468;28;19925;-58
2021/09/25 06:38:14;;;;;;;;;;;23.30;57.60;;;;;;5071998;28;20319;-58
2021/09/25 06:40:41;;;;;;;;;;;23.30;57.60;;;;;;5072299;28;19960;-59
2021/09/25 06:43:08;;;;;;;;;;;23.30;57.60;;;;;;5104649;28;19931;-59
2021/09/25 06:45:38;;;;;;;;;;;23.30;57.60;;;;;;5073425;28;19925;-58
2021/09/25 06:48:05;;;;;;;;;;;23.30;57.50;;;;;;5056926;28;20023;-59
2021/09/25 06:50:32;;;;;;;;;;;23.30;57.50;;;;;;5071083;28;19960;-59
2021/09/25 06:52:59;;;;;;;;;;;23.30;57.50;;;;;;5073143;28;19924;-59
2021/09/25 06:55:26;;;;;;;;;;;23.30;57.50;;;;;;5070531;28;19948;-60
2021/09/25 06:57:53;;;;;;;;;;;23.30;57.40;;;;;;5070697;28;19924;-59
2021/09/25 07:00:20;;;;;;;;;;;23.30;57.40;;;;;;5070625;28;19956;-59
2021/09/25 07:02:47;;;;;;;;;;;23.30;57.40;;;;;;5075527;28;19975;-59
2021/09/25 07:05:15;;;;;;;;;;;23.30;57.40;;;;;;5087278;28;20015;-58
2021/09/25 07:07:42;;;;;;;;;;;23.30;57.30;;;;;;5088582;28;19928;-59
2021/09/25 07:10:11;;;;;;;;;;;23.30;57.30;;;;;;5071927;28;19955;-59
2021/09/25 07:12:38;;;;;;;;;;;23.30;57.30;;;;;;5088641;28;20075;-60
2021/09/25 07:15:06;;;;;;;;;;;23.30;57.30;;;;;;5057029;28;19986;-59
2021/09/25 07:17:33;;;;;;;;;;;23.30;57.30;;;;;;5075988;28;19964;-59
2021/09/25 07:20:00;;;;;;;;;;;23.40;57.30;;;;;;5060639;28;20403;-59
2021/09/25 07:22:27;;;;;;;;;;;23.40;57.30;;;;;;5056290;28;20273;-59
2021/09/25 07:24:55;;;;;;;;;;;23.40;57.30;;;;;;5056537;28;19925;-59
2021/09/25 07:27:22;;;;;;;;;;;23.40;57.30;;;;;;5099124;28;19924;-59
2021/09/25 07:29:50;;;;;;;;;;;23.40;57.30;;;;;;5083795;28;19978;-59
2021/09/25 07:32:17;;;;;;;;;;;23.40;57.20;;;;;;5071585;28;20359;-60
2021/09/25 07:34:45;;;;;;;;;;;23.40;57.20;;;;;;5073336;28;19931;-61
2021/09/25 07:37:12;;;;;;;;;;;23.40;57.20;;;;;;5053115;28;20472;-60
2021/09/25 07:39:39;;;;;;;;;;;23.40;57.20;;;;;;5056241;28;20015;-60
2021/09/25 07:42:06;;;;;;;;;;;23.40;57.10;;;;;;5076337;28;19924;-60
2021/09/25 07:44:34;;;;;;;;;;;23.50;57.20;;;;;;5062353;28;20308;-60
2021/09/25 07:47:02;;;;;;;;;;;23.40;57.10;;;;;;5061108;28;19932;-61
2021/09/25 07:49:29;;;;;;;;;;;23.40;57.10;;;;;;5058493;28;19925;-60
2021/09/25 07:51:56;;;;;;;;;;;23.40;57.10;;;;;;5075413;28;19931;-60
2021/09/25 07:54:23;;;;;;;;;;;23.50;57.10;;;;;;5065938;28;20467;-60
2021/09/25 07:56:50;;;;;;;;;;;23.50;57.00;;;;;;5079114;28;19932;-59
2021/09/25 07:59:16;;;;;;;;;;;23.50;57.00;;;;;;5088887;28;20019;-60
2021/09/25 08:01:43;;;;;;;;;;;23.50;57.00;;;;;;5075065;28;19963;-59
2021/09/25 08:04:11;;;;;;;;;;;23.50;57.00;;;;;;5074270;28;19925;-59
2021/09/25 08:06:38;;;;;;;;;;;23.50;56.90;;;;;;5074662;28;20356;-60
2021/09/25 08:09:05;;;;;;;;;;;23.50;56.90;;;;;;5058467;28;20411;-60
2021/09/25 08:11:32;;;;;;;;;;;23.50;57.50;;;;;;5059061;28;19955;-60
2021/09/25 08:13:59;;;;;;;;;;;23.50;56.80;;;;;;5060593;28;19967;-60
2021/09/25 08:16:26;;;;;;;;;;;23.50;56.70;;;;;;5061089;28;20007;-59
2021/09/25 08:18:56;;;;;;;;;;;23.50;56.70;;;;;;5058958;28;19968;-59
2021/09/25 08:21:24;;;;;;;;;;;23.50;56.70;;;;;;5065321;28;20020;-59
2021/09/25 08:23:51;;;;;;;;;;;23.50;56.60;;;;;;5107225;28;20449;-61
2021/09/25 08:26:18;;;;;;;;;;;23.50;56.60;;;;;;5074531;28;19925;-60
2021/09/25 08:28:45;;;;;;;;;;;23.60;56.60;;;;;;5074558;28;19924;-61
2021/09/25 08:31:12;;;;;;;;;;;23.60;56.60;;;;;;5073921;28;20010;-60
2021/09/25 08:33:39;;;;;;;;;;;23.60;56.60;;;;;;5057898;28;19986;-60
2021/09/25 08:36:06;;;;;;;;;;;23.60;56.50;;;;;;5058811;28;19994;-60
2021/09/25 08:38:33;;;;;;;;;;;23.60;56.40;;;;;;5060313;28;19925;-61
2021/09/25 08:41:00;;;;;;;;;;;23.60;56.40;;;;;;5080753;28;19924;-60
2021/09/25 08:43:27;;;;;;;;;;;23.70;56.50;;;;;;5089796;28;19924;-60
2021/09/25 08:45:55;;;;;;;;;;;23.60;56.40;;;;;;5089867;28;19976;-60
2021/09/25 08:48:22;;;;;;;;;;;23.70;57.00;;;;;;5083596;28;20027;-59
2021/09/25 08:50:49;;;;;;;;;;;23.70;56.40;;;;;;5074926;28;19932;-60
2021/09/25 08:53:16;;;;;;;;;;;23.70;56.40;;;;;;5074529;28;20019;-60
2021/09/25 08:55:43;;;;;;;;;;;23.70;56.30;;;;;;5058736;28;19928;-60
2021/09/25 08:58:11;;;;;;;;;;;23.70;56.30;;;;;;5075343;28;19979;-60
2021/09/25 09:00:48;;;;;;;;;;;23.70;56.30;;;;;;5056670;28;19979;-60
2021/09/25 09:03:18;;;;;;;;;;;23.70;56.30;;;;;;5074237;28;19925;-60
2021/09/25 09:05:46;;;;;;;;;;;23.70;56.20;;;;;;5073866;28;20019;-60
2021/09/25 09:08:13;;;;;;;;;;;23.70;56.20;;;;;;5061021;28;19925;-60
2021/09/25 09:10:40;;;;;;;;;;;23.70;56.20;;;;;;5082372;28;19924;-59
2021/09/25 09:13:07;;;;;;;;;;;23.70;56.10;;;;;;5072793;28;19999;-60
2021/09/25 09:15:39;;;;;;;;;;;23.70;56.20;;;;;;5075008;28;19936;-60
2021/09/25 09:18:13;;;;;;;;;;;23.70;56.10;;;;;;5071329;28;19939;-59
2021/09/25 09:20:58;;;;;;;;;;;23.70;56.00;;;;;;5074948;28;20340;-59
2021/09/25 09:23:25;;;;;;;;;;;23.70;56.00;;;;;;5073153;28;20011;-59
2021/09/25 09:25:52;;;;;;;;;;;23.70;56.10;;;;;;5077013;28;19978;-59
2021/09/25 09:28:27;;;;;;;;;;;23.70;56.10;;;;;;5087279;28;19967;-60
2021/09/25 09:30:55;;;;;;;;;;;23.80;56.10;;;;;;5073317;28;20312;-59
2021/09/25 09:33:48;;;;;;;;;;;23.80;56.10;;;;;;5073522;28;20391;-60
2021/09/25 09:36:17;;;;;;;;;;;23.80;56.10;;;;;;5057157;28;19924;-59
2021/09/25 09:38:53;;;;;;;;;;;23.80;56.10;;;;;;5073284;28;19971;-59
2021/09/25 09:41:21;;;;;;;;;;;23.80;56.10;;;;;;5073028;28;19995;-59
2021/09/25 09:43:48;;;;;;;;;;;23.80;56.10;;;;;;5071830;28;19925;-59
2021/09/25 09:46:16;;;;;;;;;;;23.80;56.10;;;;;;5072664;28;20471;-59
2021/09/25 09:48:44;;;;;;;;;;;23.80;56.10;;;;;;5072741;28;20387;-59
2021/09/25 09:51:11;;;;;;;;;;;23.80;56.10;;;;;;5074049;28;20384;-59
2021/09/25 09:53:45;;;;;;;;;;;23.80;56.10;;;;;;5072472;28;19971;-59
2021/09/25 09:56:16;;;;;;;;;;;23.80;56.00;;;;;;5064680;28;20008;-59
2021/09/25 09:58:44;;;;;;;;;;;23.80;56.00;;;;;;5063592;28;19925;-59
2021/09/25 10:01:11;;;;;;;;;;;23.80;56.10;;;;;;5067955;28;19925;-59
2021/09/25 10:03:39;;;;;;;;;;;23.80;56.00;;;;;;5058977;28;19925;-59
2021/09/25 10:06:06;;;;;;;;;;;23.80;56.00;;;;;;5073601;28;20001;-59
2021/09/25 10:08:33;;;;;;;;;;;23.80;56.00;;;;;;5071312;28;19979;-60
2021/09/25 10:11:00;;;;;;;;;;;23.80;56.00;;;;;;5071501;28;20280;-58
2021/09/25 10:13:27;;;;;;;;;;;23.80;56.20;;;;;;5088647;28;20383;-59
2021/09/25 10:15:54;;;;;;;;;;;23.90;56.40;;;;;;5073309;28;20404;-58
2021/09/25 10:18:21;;;;;;;;;;;23.90;56.20;;;;;;5072173;28;20388;-59
2021/09/25 10:20:48;;;;;;;;;;;23.90;56.20;;;;;;5084153;28;19936;-58
2021/09/25 10:23:16;;;;;;;;;;;23.90;56.20;;;;;;5073187;28;20016;-57
2021/09/25 10:25:43;;;;;;;;;;;23.90;56.20;;;;;;5064109;28;19934;-58
2021/09/25 10:28:23;;;;;;;;;;;23.90;56.20;;;;;;5068373;28;19925;-56
2021/09/25 10:30:50;;;;;;;;;;;23.90;56.20;;;;;;5060330;28;19924;-57
2021/09/25 10:33:18;;;;;;;;;;;23.90;56.20;;;;;;5072218;28;20346;-58
2021/09/25 10:35:45;;;;;;;;;;;23.90;56.20;;;;;;5057752;28;19930;-59
2021/09/25 10:38:12;;;;;;;;;;;23.90;56.20;;;;;;5072023;28;20351;-60
2021/09/25 10:41:18;;;;;;;;;;;23.90;56.20;;;;;;5064770;28;20006;-59
2021/09/25 10:43:47;;;;;;;;;;;23.90;56.20;;;;;;5055729;28;20007;-58
2021/09/25 10:46:15;;;;;;;;;;;23.90;56.30;;;;;;5089062;28;19966;-58
2021/09/25 10:48:46;;;;;;;;;;;23.90;56.20;;;;;;5054471;28;20348;-59
2021/09/25 10:51:15;;;;;;;;;;;23.90;56.20;;;;;;5055700;28;19960;-58
2021/09/25 10:53:44;;;;;;;;;;;23.90;56.20;;;;;;5070535;28;19924;-59
2021/09/25 10:56:21;;;;;;;;;;;23.90;56.30;;;;;;5071165;28;19924;-59
2021/09/25 10:58:54;;;;;;;;;;;23.90;56.20;;;;;;5073480;28;19924;-59
2021/09/25 11:01:32;;;;;;;;;;;23.90;56.20;;;;;;5070349;28;19960;-58
2021/09/25 11:04:04;;;;;;;;;;;23.90;56.30;;;;;;5071976;28;19973;-58
2021/09/25 11:06:31;;;;;;;;;;;23.90;56.30;;;;;;5063259;28;19924;-60
2021/09/25 11:09:03;;;;;;;;;;;23.90;56.30;;;;;;5062819;28;19932;-59
2021/09/25 11:11:30;;;;;;;;;;;23.90;56.30;;;;;;5076625;28;19950;-59
2021/09/25 11:14:00;;;;;;;;;;;23.90;56.30;;;;;;5084964;28;20019;-59
2021/09/25 11:16:45;;;;;;;;;;;23.90;56.30;;;;;;5075699;28;19924;-60
2021/09/25 11:19:21;;;;;;;;;;;23.90;56.30;;;;;;5063762;28;19928;-59
2021/09/25 11:21:49;;;;;;;;;;;23.90;56.30;;;;;;5077070;28;20015;-59
2021/09/25 11:24:16;;;;;;;;;;;23.90;56.30;;;;;;5076046;28;20347;-59
2021/09/25 11:26:43;;;;;;;;;;;23.90;56.40;;;;;;5076105;28;20265;-59
2021/09/25 11:29:11;;;;;;;;;;;23.90;56.50;;;;;;5057837;28;20002;-59
2021/09/25 11:31:38;;;;;;;;;;;23.90;56.50;;;;;;5076821;28;20003;-59
2021/09/25 11:34:25;;;;;;;;;;;23.90;56.50;;;;;;5063493;28;19929;-58
2021/09/25 11:36:56;;;;;;;;;;;23.90;56.60;;;;;;5073972;28;20396;-59
2021/09/25 11:39:42;;;;;;;;;;;23.90;56.70;;;;;;5075219;28;19928;-59
2021/09/25 11:42:09;;;;;;;;;;;23.90;56.70;;;;;;5075149;28;20423;-59
2021/09/25 11:44:40;;;;;;;;;;;23.90;56.70;;;;;;5075391;28;20015;-58
2021/09/25 11:47:07;;;;;;;;;;;23.90;56.70;;;;;;5075388;28;19924;-59
2021/09/25 11:49:35;;;;;;;;;;;23.90;56.70;;;;;;5073810;28;19925;-59
2021/09/25 11:52:02;;;;;;;;;;;23.90;56.70;;;;;;5070940;28;20288;-59
2021/09/25 11:54:29;;;;;;;;;;;23.90;56.80;;;;;;5063490;28;19956;-59
2021/09/25 11:56:56;;;;;;;;;;;23.90;56.80;;;;;;5073514;28;19971;-59
2021/09/25 11:59:25;;;;;;;;;;;23.90;56.80;;;;;;5060179;28;19924;-59
2021/09/25 12:01:52;;;;;;;;;;;23.90;56.90;;;;;;5074752;28;19974;-59
2021/09/25 12:04:19;;;;;;;;;;;23.90;56.90;;;;;;5093209;28;19991;-59
2021/09/25 12:06:53;;;;;;;;;;;23.90;56.90;;;;;;5072819;28;20003;-59
2021/09/25 12:09:38;;;;;;;;;;;23.90;56.90;;;;;;5074739;28;19997;-57
2021/09/25 12:12:04;;;;;;;;;;;23.90;56.90;;;;;;5059936;28;19964;-58
2021/09/25 12:14:33;;;;;;;;;;;23.90;56.90;;;;;;5071224;28;19956;-58
2021/09/25 12:17:01;;;;;;;;;;;23.90;56.90;;;;;;5076031;28;20544;-59
2021/09/25 12:19:28;;;;;;;;;;;23.90;57.00;;;;;;5073679;28;19993;-58
2021/09/25 12:21:55;;;;;;;;;;;23.90;57.00;;;;;;5082933;28;19924;-57
2021/09/25 12:24:22;;;;;;;;;;;23.90;57.00;;;;;;5080319;28;20293;-57
2021/09/25 12:26:52;;;;;;;;;;;23.90;57.00;;;;;;5061167;28;20399;-57
2021/09/25 12:29:19;;;;;;;;;;;23.90;57.00;;;;;;5074432;28;19996;-57
2021/09/25 12:31:46;;;;;;;;;;;23.90;57.00;;;;;;5074224;28;19990;-57
2021/09/25 12:34:18;;;;;;;;;;;23.90;56.90;;;;;;5075670;28;19925;-57
2021/09/25 12:36:46;;;;;;;;;;;23.90;57.00;;;;;;5074245;28;19924;-57
2021/09/25 12:39:14;;;;;;;;;;;23.90;56.90;;;;;;5074025;28;20381;-58
2021/09/25 12:41:47;;;;;;;;;;;23.90;56.90;;;;;;5074698;28;20363;-57
2021/09/25 12:44:15;;;;;;;;;;;23.90;56.90;;;;;;5076478;28;20011;-58
2021/09/25 12:46:46;;;;;;;;;;;23.90;56.90;;;;;;5074616;28;19960;-57
2021/09/25 12:49:13;;;;;;;;;;;23.90;56.90;;;;;;5076536;28;19924;-58
2021/09/25 12:51:52;;;;;;;;;;;23.90;56.90;;;;;;5073035;28;19928;-57
2021/09/25 12:54:30;;;;;;;;;;;23.90;56.90;;;;;;5067031;28;19967;-58
2021/09/25 12:56:58;;;;;;;;;;;23.90;56.90;;;;;;5065861;28;19974;-59
2021/09/25 12:59:34;;;;;;;;;;;23.90;56.90;;;;;;5070656;28;19925;-59
2021/09/25 13:02:03;;;;;;;;;;;23.90;56.90;;;;;;5062637;28;20433;-58
2021/09/25 13:04:31;;;;;;;;;;;23.90;56.80;;;;;;5074052;28;19955;-59
2021/09/25 13:06:59;;;;;;;;;;;23.90;56.90;;;;;;5075072;28;19928;-58
2021/09/25 13:09:26;;;;;;;;;;;23.90;56.80;;;;;;5074991;28;20441;-58
2021/09/25 13:12:05;;;;;;;;;;;23.90;56.80;;;;;;5090611;28;19959;-58
2021/09/25 13:14:33;;;;;;;;;;;23.90;56.80;;;;;;5072613;28;19925;-58
2021/09/25 13:17:03;;;;;;;;;;;23.90;56.80;;;;;;5057389;28;19928;-58
2021/09/25 13:19:30;;;;;;;;;;;23.90;56.80;;;;;;5058129;28;20445;-58
2021/09/25 13:22:00;;;;;;;;;;;23.90;56.80;;;;;;5070553;28;19928;-59
2021/09/25 13:24:26;;;;;;;;;;;23.90;56.80;;;;;;5075009;28;19928;-58
2021/09/25 13:26:53;;;;;;;;;;;23.90;56.90;;;;;;5064994;28;19972;-58
2021/09/25 13:29:20;;;;;;;;;;;23.90;56.90;;;;;;5064017;28;19925;-58
2021/09/25 13:31:47;;;;;;;;;;;23.90;56.80;;;;;;5068825;28;19965;-58
2021/09/25 13:34:14;;;;;;;;;;;23.90;56.90;;;;;;5061294;28;19928;-58
2021/09/25 13:36:41;;;;;;;;;;;23.90;56.90;;;;;;5072017;28;19925;-59
2021/09/25 13:39:08;;;;;;;;;;;23.90;56.90;;;;;;5074499;28;19971;-58
2021/09/25 13:41:35;;;;;;;;;;;23.90;56.90;;;;;;5091398;28;19968;-58
2021/09/25 13:44:02;;;;;;;;;;;23.90;56.90;;;;;;5073665;28;20308;-58
2021/09/25 13:46:29;;;;;;;;;;;23.90;57.10;;;;;;5073501;28;20011;-58
2021/09/25 13:48:56;;;;;;;;;;;23.90;56.90;;;;;;5084717;28;19924;-60
2021/09/25 13:51:23;;;;;;;;;;;23.90;57.00;;;;;;5078053;28;19967;-59
2021/09/25 13:53:50;;;;;;;;;;;23.90;56.90;;;;;;5066577;28;19924;-59
2021/09/25 13:56:17;;;;;;;;;;;23.90;57.00;;;;;;5062454;28;20387;-58
2021/09/25 13:58:44;;;;;;;;;;;23.90;57.10;;;;;;5069123;28;19925;-59
2021/09/25 14:01:11;;;;;;;;;;;23.90;57.00;;;;;;5060076;28;20280;-59
2021/09/25 14:03:38;;;;;;;;;;;23.90;57.10;;;;;;5072877;28;19933;-58
2021/09/25 14:06:07;;;;;;;;;;;24.00;57.20;;;;;;5055329;28;19933;-59
2021/09/25 14:08:35;;;;;;;;;;;23.90;57.10;;;;;;5073112;28;19935;-59
2021/09/25 14:11:02;;;;;;;;;;;23.90;57.00;;;;;;5057231;28;20011;-59
2021/09/25 14:13:29;;;;;;;;;;;23.90;57.20;;;;;;5069709;28;20007;-58
2021/09/25 14:15:56;;;;;;;;;;;23.90;57.10;;;;;;5084155;28;20007;-59
2021/09/25 14:18:23;;;;;;;;;;;24.00;57.40;;;;;;5109253;27;19924;-59
2021/09/25 14:20:50;;;;;;;;;;;24.00;57.40;;;;;;5082073;28;20355;-59